sensor_id;sensor_type;location;lat;lon;timestamp;P1;durP1;ratioP1;P2;durP2;ratioP2
70049;SDS011;57391;51.306;22.680;2023-02-11T00:01:34;27.80;;;11.70;;
70049;SDS011;57391;51.306;22.680;2023-02-11T00:04:03;26.40;;;9.70;;
70049;SDS011;57391;51.306;22.680;2023-02-11T00:06:32;27.90;;;12.60;;
70049;SDS011;57391;51.306;22.680;2023-02-11T00:09:00;30.10;;;12.30;;
70049;SDS011;57391;51.306;22.680;2023-02-11T00:11:28;27.80;;;10.80;;
70049;SDS011;57391;51.306;22.680;2023-02-11T00:13:58;26.80;;;11.60;;
70049;SDS011;57391;51.306;22.680;2023-02-11T00:16:26;33.30;;;13.00;;
70049;SDS011;57391;51.306;22.680;2023-02-11T00:18:55;29.40;;;12.50;;
70049;SDS011;57391;51.306;22.680;2023-02-11T00:21:24;31.40;;;12.60;;
70049;SDS011;57391;51.306;22.680;2023-02-11T00:23:52;34.60;;;13.30;;
70049;SDS011;57391;51.306;22.680;2023-02-11T00:26:35;28.10;;;11.70;;
70049;SDS011;57391;51.306;22.680;2023-02-11T00:29:02;29.90;;;11.90;;
70049;SDS011;57391;51.306;22.680;2023-02-11T00:31:32;29.00;;;12.80;;
70049;SDS011;57391;51.306;22.680;2023-02-11T00:34:00;25.80;;;10.20;;
70049;SDS011;57391;51.306;22.680;2023-02-11T00:36:28;25.70;;;11.20;;
70049;SDS011;57391;51.306;22.680;2023-02-11T00:38:56;24.20;;;9.70;;
70049;SDS011;57391;51.306;22.680;2023-02-11T00:41:24;26.00;;;11.60;;
70049;SDS011;57391;51.306;22.680;2023-02-11T00:43:52;27.60;;;11.40;;
70049;SDS011;57391;51.306;22.680;2023-02-11T00:46:20;26.50;;;11.20;;
70049;SDS011;57391;51.306;22.680;2023-02-11T00:48:48;31.50;;;13.20;;
70049;SDS011;57391;51.306;22.680;2023-02-11T00:51:17;26.20;;;10.50;;
70049;SDS011;57391;51.306;22.680;2023-02-11T00:53:44;27.80;;;10.90;;
70049;SDS011;57391;51.306;22.680;2023-02-11T00:56:11;30.60;;;12.50;;
70049;SDS011;57391;51.306;22.680;2023-02-11T00:58:38;27.80;;;10.80;;
70049;SDS011;57391;51.306;22.680;2023-02-11T01:01:05;33.50;;;12.70;;
70049;SDS011;57391;51.306;22.680;2023-02-11T01:03:33;28.80;;;12.70;;
70049;SDS011;57391;51.306;22.680;2023-02-11T01:06:01;27.00;;;10.90;;
70049;SDS011;57391;51.306;22.680;2023-02-11T01:08:28;24.60;;;11.00;;
70049;SDS011;57391;51.306;22.680;2023-02-11T01:11:04;24.00;;;11.00;;
70049;SDS011;57391;51.306;22.680;2023-02-11T01:13:35;29.80;;;11.70;;
70049;SDS011;57391;51.306;22.680;2023-02-11T01:16:06;28.90;;;11.80;;
70049;SDS011;57391;51.306;22.680;2023-02-11T01:18:36;27.00;;;12.60;;
70049;SDS011;57391;51.306;22.680;2023-02-11T01:21:04;33.20;;;12.70;;
70049;SDS011;57391;51.306;22.680;2023-02-11T01:23:31;28.90;;;12.20;;
70049;SDS011;57391;51.306;22.680;2023-02-11T01:26:01;28.90;;;10.80;;
70049;SDS011;57391;51.306;22.680;2023-02-11T01:28:29;25.40;;;10.90;;
70049;SDS011;57391;51.306;22.680;2023-02-11T01:30:56;25.70;;;11.30;;
70049;SDS011;57391;51.306;22.680;2023-02-11T01:33:24;28.00;;;10.80;;
70049;SDS011;57391;51.306;22.680;2023-02-11T01:35:51;25.80;;;11.70;;
70049;SDS011;57391;51.306;22.680;2023-02-11T01:38:21;30.00;;;12.10;;
70049;SDS011;57391;51.306;22.680;2023-02-11T01:41:02;29.50;;;11.20;;
70049;SDS011;57391;51.306;22.680;2023-02-11T01:43:37;27.20;;;11.60;;
70049;SDS011;57391;51.306;22.680;2023-02-11T01:46:36;25.00;;;10.90;;
70049;SDS011;57391;51.306;22.680;2023-02-11T01:49:08;22.80;;;10.60;;
70049;SDS011;57391;51.306;22.680;2023-02-11T01:51:42;22.00;;;9.10;;
70049;SDS011;57391;51.306;22.680;2023-02-11T01:54:20;27.20;;;11.70;;
70049;SDS011;57391;51.306;22.680;2023-02-11T01:57:10;25.10;;;10.70;;
70049;SDS011;57391;51.306;22.680;2023-02-11T02:05:31;27.20;;;10.60;;
70049;SDS011;57391;51.306;22.680;2023-02-11T02:08:13;29.30;;;10.70;;
70049;SDS011;57391;51.306;22.680;2023-02-11T02:10:47;25.60;;;11.30;;
70049;SDS011;57391;51.306;22.680;2023-02-11T02:13:19;26.20;;;9.70;;
70049;SDS011;57391;51.306;22.680;2023-02-11T02:16:02;24.60;;;10.70;;
70049;SDS011;57391;51.306;22.680;2023-02-11T02:18:53;25.20;;;10.10;;
70049;SDS011;57391;51.306;22.680;2023-02-11T02:30:10;25.20;;;11.00;;
70049;SDS011;57391;51.306;22.680;2023-02-11T02:35:46;23.20;;;9.70;;
70049;SDS011;57391;51.306;22.680;2023-02-11T02:38:45;26.80;;;11.00;;
70049;SDS011;57391;51.306;22.680;2023-02-11T02:41:18;20.00;;;8.40;;
70049;SDS011;57391;51.306;22.680;2023-02-11T02:43:49;25.90;;;10.20;;
70049;SDS011;57391;51.306;22.680;2023-02-11T02:46:24;22.30;;;9.90;;
70049;SDS011;57391;51.306;22.680;2023-02-11T02:48:54;23.90;;;9.90;;
70049;SDS011;57391;51.306;22.680;2023-02-11T02:57:13;24.80;;;9.90;;
70049;SDS011;57391;51.306;22.680;2023-02-11T03:05:54;22.50;;;9.30;;
70049;SDS011;57391;51.306;22.680;2023-02-11T03:09:01;23.90;;;10.30;;
70049;SDS011;57391;51.306;22.680;2023-02-11T03:11:32;23.40;;;9.80;;
70049;SDS011;57391;51.306;22.680;2023-02-11T03:14:04;23.60;;;10.00;;
70049;SDS011;57391;51.306;22.680;2023-02-11T03:16:35;22.00;;;9.60;;
70049;SDS011;57391;51.306;22.680;2023-02-11T03:19:12;22.90;;;10.30;;
70049;SDS011;57391;51.306;22.680;2023-02-11T03:22:02;22.80;;;10.00;;
70049;SDS011;57391;51.306;22.680;2023-02-11T03:24:36;20.30;;;9.20;;
70049;SDS011;57391;51.306;22.680;2023-02-11T03:27:14;24.10;;;10.50;;
70049;SDS011;57391;51.306;22.680;2023-02-11T03:30:08;24.00;;;9.30;;
70049;SDS011;57391;51.306;22.680;2023-02-11T03:32:55;21.30;;;9.20;;
70049;SDS011;57391;51.306;22.680;2023-02-11T03:35:40;26.10;;;11.20;;
70049;SDS011;57391;51.306;22.680;2023-02-11T03:38:18;21.80;;;9.00;;
70049;SDS011;57391;51.306;22.680;2023-02-11T03:40:53;24.00;;;10.40;;
70049;SDS011;57391;51.306;22.680;2023-02-11T03:43:32;20.10;;;9.30;;
70049;SDS011;57391;51.306;22.680;2023-02-11T03:46:02;21.30;;;9.10;;
70049;SDS011;57391;51.306;22.680;2023-02-11T03:48:32;20.10;;;8.20;;
70049;SDS011;57391;51.306;22.680;2023-02-11T03:51:05;21.70;;;9.50;;
70049;SDS011;57391;51.306;22.680;2023-02-11T03:53:36;21.10;;;10.30;;
70049;SDS011;57391;51.306;22.680;2023-02-11T03:56:09;19.30;;;8.00;;
70049;SDS011;57391;51.306;22.680;2023-02-11T03:58:43;22.30;;;9.40;;
70049;SDS011;57391;51.306;22.680;2023-02-11T04:01:11;22.40;;;9.50;;
70049;SDS011;57391;51.306;22.680;2023-02-11T04:03:38;23.50;;;10.10;;
70049;SDS011;57391;51.306;22.680;2023-02-11T04:06:06;26.10;;;9.10;;
70049;SDS011;57391;51.306;22.680;2023-02-11T04:08:33;27.40;;;12.20;;
70049;SDS011;57391;51.306;22.680;2023-02-11T04:11:01;25.30;;;10.20;;
70049;SDS011;57391;51.306;22.680;2023-02-11T04:13:28;25.00;;;10.70;;
70049;SDS011;57391;51.306;22.680;2023-02-11T04:15:56;26.80;;;11.30;;
70049;SDS011;57391;51.306;22.680;2023-02-11T04:18:22;22.70;;;10.20;;
70049;SDS011;57391;51.306;22.680;2023-02-11T04:20:49;25.70;;;9.90;;
70049;SDS011;57391;51.306;22.680;2023-02-11T04:23:16;22.30;;;10.30;;
70049;SDS011;57391;51.306;22.680;2023-02-11T04:25:43;24.80;;;11.20;;
70049;SDS011;57391;51.306;22.680;2023-02-11T04:28:10;27.70;;;11.90;;
70049;SDS011;57391;51.306;22.680;2023-02-11T04:30:37;25.30;;;9.60;;
70049;SDS011;57391;51.306;22.680;2023-02-11T04:33:04;23.50;;;12.00;;
70049;SDS011;57391;51.306;22.680;2023-02-11T04:35:31;28.70;;;11.60;;
70049;SDS011;57391;51.306;22.680;2023-02-11T04:37:58;26.90;;;11.20;;
70049;SDS011;57391;51.306;22.680;2023-02-11T04:40:25;31.90;;;12.70;;
70049;SDS011;57391;51.306;22.680;2023-02-11T04:42:52;24.30;;;11.30;;
70049;SDS011;57391;51.306;22.680;2023-02-11T04:45:19;28.30;;;11.50;;
70049;SDS011;57391;51.306;22.680;2023-02-11T04:47:46;31.10;;;12.50;;
70049;SDS011;57391;51.306;22.680;2023-02-11T04:50:13;25.90;;;11.90;;
70049;SDS011;57391;51.306;22.680;2023-02-11T04:52:40;24.80;;;11.40;;
70049;SDS011;57391;51.306;22.680;2023-02-11T04:55:07;27.60;;;11.20;;
70049;SDS011;57391;51.306;22.680;2023-02-11T04:57:34;28.30;;;12.80;;
70049;SDS011;57391;51.306;22.680;2023-02-11T05:00:02;28.10;;;11.30;;
70049;SDS011;57391;51.306;22.680;2023-02-11T05:02:30;26.50;;;12.50;;
70049;SDS011;57391;51.306;22.680;2023-02-11T05:04:57;25.20;;;12.10;;
70049;SDS011;57391;51.306;22.680;2023-02-11T05:07:24;33.00;;;11.90;;
70049;SDS011;57391;51.306;22.680;2023-02-11T05:09:51;30.90;;;13.20;;
70049;SDS011;57391;51.306;22.680;2023-02-11T05:12:18;28.40;;;13.00;;
70049;SDS011;57391;51.306;22.680;2023-02-11T05:14:45;27.80;;;12.40;;
70049;SDS011;57391;51.306;22.680;2023-02-11T05:17:12;32.50;;;13.00;;
70049;SDS011;57391;51.306;22.680;2023-02-11T05:19:41;29.50;;;13.10;;
70049;SDS011;57391;51.306;22.680;2023-02-11T05:22:08;25.80;;;11.80;;
70049;SDS011;57391;51.306;22.680;2023-02-11T05:24:35;23.20;;;10.20;;
70049;SDS011;57391;51.306;22.680;2023-02-11T05:27:02;25.50;;;11.00;;
70049;SDS011;57391;51.306;22.680;2023-02-11T05:29:29;24.30;;;10.90;;
70049;SDS011;57391;51.306;22.680;2023-02-11T05:31:57;26.30;;;11.40;;
70049;SDS011;57391;51.306;22.680;2023-02-11T05:34:25;24.20;;;10.40;;
70049;SDS011;57391;51.306;22.680;2023-02-11T05:36:53;26.80;;;10.60;;
70049;SDS011;57391;51.306;22.680;2023-02-11T05:39:21;22.80;;;9.40;;
70049;SDS011;57391;51.306;22.680;2023-02-11T05:41:48;29.70;;;12.10;;
70049;SDS011;57391;51.306;22.680;2023-02-11T05:44:15;24.60;;;9.10;;
70049;SDS011;57391;51.306;22.680;2023-02-11T05:46:42;21.90;;;10.00;;
70049;SDS011;57391;51.306;22.680;2023-02-11T05:49:10;20.90;;;9.10;;
70049;SDS011;57391;51.306;22.680;2023-02-11T05:51:36;23.70;;;10.00;;
70049;SDS011;57391;51.306;22.680;2023-02-11T05:54:04;28.30;;;11.10;;
70049;SDS011;57391;51.306;22.680;2023-02-11T05:56:30;20.30;;;9.50;;
70049;SDS011;57391;51.306;22.680;2023-02-11T05:58:58;26.50;;;10.30;;
70049;SDS011;57391;51.306;22.680;2023-02-11T06:01:26;23.60;;;9.60;;
70049;SDS011;57391;51.306;22.680;2023-02-11T06:03:53;25.10;;;10.90;;
70049;SDS011;57391;51.306;22.680;2023-02-11T06:06:20;25.90;;;10.60;;
70049;SDS011;57391;51.306;22.680;2023-02-11T06:08:47;27.00;;;10.80;;
70049;SDS011;57391;51.306;22.680;2023-02-11T06:11:15;24.60;;;10.60;;
70049;SDS011;57391;51.306;22.680;2023-02-11T06:13:43;22.90;;;10.60;;
70049;SDS011;57391;51.306;22.680;2023-02-11T06:16:10;23.30;;;11.20;;
70049;SDS011;57391;51.306;22.680;2023-02-11T06:18:37;20.70;;;9.30;;
70049;SDS011;57391;51.306;22.680;2023-02-11T06:21:08;20.20;;;9.00;;
70049;SDS011;57391;51.306;22.680;2023-02-11T06:23:37;20.40;;;8.80;;
70049;SDS011;57391;51.306;22.680;2023-02-11T06:26:06;28.60;;;10.80;;
70049;SDS011;57391;51.306;22.680;2023-02-11T06:28:35;22.10;;;10.30;;
70049;SDS011;57391;51.306;22.680;2023-02-11T06:31:06;19.30;;;9.00;;
70049;SDS011;57391;51.306;22.680;2023-02-11T06:33:35;24.40;;;9.90;;
70049;SDS011;57391;51.306;22.680;2023-02-11T06:36:03;26.30;;;10.90;;
70049;SDS011;57391;51.306;22.680;2023-02-11T06:38:37;24.60;;;10.80;;
70049;SDS011;57391;51.306;22.680;2023-02-11T06:41:04;23.30;;;11.00;;
70049;SDS011;57391;51.306;22.680;2023-02-11T06:43:31;25.30;;;9.90;;
70049;SDS011;57391;51.306;22.680;2023-02-11T06:45:58;27.50;;;10.00;;
70049;SDS011;57391;51.306;22.680;2023-02-11T06:48:25;20.70;;;8.90;;
70049;SDS011;57391;51.306;22.680;2023-02-11T06:50:52;23.90;;;10.70;;
70049;SDS011;57391;51.306;22.680;2023-02-11T06:53:19;22.60;;;9.90;;
70049;SDS011;57391;51.306;22.680;2023-02-11T06:55:47;20.90;;;10.80;;
70049;SDS011;57391;51.306;22.680;2023-02-11T06:58:14;27.40;;;12.20;;
70049;SDS011;57391;51.306;22.680;2023-02-11T07:00:41;20.60;;;9.20;;
70049;SDS011;57391;51.306;22.680;2023-02-11T07:03:08;28.80;;;12.10;;
70049;SDS011;57391;51.306;22.680;2023-02-11T07:05:35;24.10;;;10.80;;
70049;SDS011;57391;51.306;22.680;2023-02-11T07:08:04;24.90;;;9.00;;
70049;SDS011;57391;51.306;22.680;2023-02-11T07:10:32;28.80;;;11.30;;
70049;SDS011;57391;51.306;22.680;2023-02-11T07:13:00;22.90;;;10.60;;
70049;SDS011;57391;51.306;22.680;2023-02-11T07:15:28;22.70;;;10.40;;
70049;SDS011;57391;51.306;22.680;2023-02-11T07:17:54;25.60;;;9.90;;
70049;SDS011;57391;51.306;22.680;2023-02-11T07:20:22;23.70;;;10.50;;
70049;SDS011;57391;51.306;22.680;2023-02-11T07:22:48;28.00;;;11.70;;
70049;SDS011;57391;51.306;22.680;2023-02-11T07:25:16;25.30;;;10.90;;
70049;SDS011;57391;51.306;22.680;2023-02-11T07:27:43;28.80;;;11.10;;
70049;SDS011;57391;51.306;22.680;2023-02-11T07:30:11;23.40;;;11.10;;
70049;SDS011;57391;51.306;22.680;2023-02-11T07:32:38;26.60;;;11.30;;
70049;SDS011;57391;51.306;22.680;2023-02-11T07:35:05;29.40;;;13.10;;
70049;SDS011;57391;51.306;22.680;2023-02-11T07:37:34;26.10;;;11.00;;
70049;SDS011;57391;51.306;22.680;2023-02-11T07:40:02;22.20;;;10.00;;
70049;SDS011;57391;51.306;22.680;2023-02-11T07:42:29;25.50;;;11.60;;
70049;SDS011;57391;51.306;22.680;2023-02-11T07:44:56;28.90;;;14.00;;
70049;SDS011;57391;51.306;22.680;2023-02-11T07:47:23;26.30;;;11.70;;
70049;SDS011;57391;51.306;22.680;2023-02-11T07:49:51;29.40;;;13.00;;
70049;SDS011;57391;51.306;22.680;2023-02-11T07:52:18;28.30;;;12.10;;
70049;SDS011;57391;51.306;22.680;2023-02-11T07:54:47;26.00;;;13.00;;
70049;SDS011;57391;51.306;22.680;2023-02-11T07:57:14;23.50;;;11.20;;
70049;SDS011;57391;51.306;22.680;2023-02-11T07:59:41;25.40;;;10.80;;
70049;SDS011;57391;51.306;22.680;2023-02-11T08:02:08;23.50;;;9.30;;
70049;SDS011;57391;51.306;22.680;2023-02-11T08:04:36;27.10;;;10.90;;
70049;SDS011;57391;51.306;22.680;2023-02-11T08:07:03;28.70;;;12.30;;
70049;SDS011;57391;51.306;22.680;2023-02-11T08:09:31;26.10;;;11.90;;
70049;SDS011;57391;51.306;22.680;2023-02-11T08:11:59;26.20;;;10.60;;
70049;SDS011;57391;51.306;22.680;2023-02-11T08:14:26;33.90;;;12.90;;
70049;SDS011;57391;51.306;22.680;2023-02-11T08:16:54;26.70;;;12.40;;
70049;SDS011;57391;51.306;22.680;2023-02-11T08:19:20;25.60;;;12.60;;
70049;SDS011;57391;51.306;22.680;2023-02-11T08:21:48;30.50;;;13.60;;
70049;SDS011;57391;51.306;22.680;2023-02-11T08:24:15;27.30;;;12.20;;
70049;SDS011;57391;51.306;22.680;2023-02-11T08:26:43;26.30;;;11.90;;
70049;SDS011;57391;51.306;22.680;2023-02-11T08:29:13;28.80;;;13.20;;
70049;SDS011;57391;51.306;22.680;2023-02-11T08:31:44;31.10;;;14.10;;
70049;SDS011;57391;51.306;22.680;2023-02-11T08:34:13;27.20;;;13.10;;
70049;SDS011;57391;51.306;22.680;2023-02-11T08:36:45;24.30;;;10.80;;
70049;SDS011;57391;51.306;22.680;2023-02-11T08:39:19;27.30;;;13.30;;
70049;SDS011;57391;51.306;22.680;2023-02-11T08:41:50;29.40;;;13.00;;
70049;SDS011;57391;51.306;22.680;2023-02-11T08:44:20;25.80;;;11.60;;
70049;SDS011;57391;51.306;22.680;2023-02-11T08:46:49;32.00;;;14.20;;
70049;SDS011;57391;51.306;22.680;2023-02-11T08:49:17;25.20;;;12.10;;
70049;SDS011;57391;51.306;22.680;2023-02-11T08:51:45;25.80;;;10.90;;
70049;SDS011;57391;51.306;22.680;2023-02-11T08:54:13;35.10;;;14.30;;
70049;SDS011;57391;51.306;22.680;2023-02-11T08:56:41;26.30;;;12.20;;
70049;SDS011;57391;51.306;22.680;2023-02-11T08:59:12;26.80;;;12.70;;
70049;SDS011;57391;51.306;22.680;2023-02-11T09:01:41;29.60;;;13.40;;
70049;SDS011;57391;51.306;22.680;2023-02-11T09:04:09;31.20;;;13.10;;
70049;SDS011;57391;51.306;22.680;2023-02-11T09:06:37;23.20;;;11.30;;
70049;SDS011;57391;51.306;22.680;2023-02-11T09:09:04;24.90;;;11.80;;
70049;SDS011;57391;51.306;22.680;2023-02-11T09:11:34;25.70;;;13.00;;
70049;SDS011;57391;51.306;22.680;2023-02-11T09:14:03;28.60;;;12.70;;
70049;SDS011;57391;51.306;22.680;2023-02-11T09:16:33;25.80;;;11.30;;
70049;SDS011;57391;51.306;22.680;2023-02-11T09:19:03;26.70;;;11.70;;
70049;SDS011;57391;51.306;22.680;2023-02-11T09:21:31;26.10;;;12.20;;
70049;SDS011;57391;51.306;22.680;2023-02-11T09:23:59;28.00;;;13.30;;
70049;SDS011;57391;51.306;22.680;2023-02-11T09:26:31;26.90;;;12.60;;
70049;SDS011;57391;51.306;22.680;2023-02-11T09:29:00;28.40;;;12.50;;
70049;SDS011;57391;51.306;22.680;2023-02-11T09:31:29;29.90;;;13.60;;
70049;SDS011;57391;51.306;22.680;2023-02-11T09:34:03;31.10;;;13.20;;
70049;SDS011;57391;51.306;22.680;2023-02-11T09:36:36;26.70;;;12.50;;
70049;SDS011;57391;51.306;22.680;2023-02-11T09:39:10;29.00;;;13.30;;
70049;SDS011;57391;51.306;22.680;2023-02-11T09:41:54;28.60;;;12.60;;
70049;SDS011;57391;51.306;22.680;2023-02-11T09:44:32;25.30;;;11.40;;
70049;SDS011;57391;51.306;22.680;2023-02-11T09:49:59;31.50;;;14.80;;
70049;SDS011;57391;51.306;22.680;2023-02-11T09:57:57;31.30;;;14.80;;
70049;SDS011;57391;51.306;22.680;2023-02-11T10:00:30;22.60;;;10.90;;
70049;SDS011;57391;51.306;22.680;2023-02-11T10:03:19;23.00;;;12.10;;
70049;SDS011;57391;51.306;22.680;2023-02-11T10:12:08;28.70;;;13.30;;
70049;SDS011;57391;51.306;22.680;2023-02-11T10:21:44;38.70;;;13.90;;
70049;SDS011;57391;51.306;22.680;2023-02-11T10:24:17;27.90;;;13.10;;
70049;SDS011;57391;51.306;22.680;2023-02-11T10:26:45;28.30;;;13.30;;
70049;SDS011;57391;51.306;22.680;2023-02-11T10:29:39;28.80;;;14.30;;
70049;SDS011;57391;51.306;22.680;2023-02-11T10:32:32;32.70;;;15.50;;
70049;SDS011;57391;51.306;22.680;2023-02-11T10:35:18;28.80;;;13.00;;
70049;SDS011;57391;51.306;22.680;2023-02-11T10:37:47;32.70;;;14.30;;
70049;SDS011;57391;51.306;22.680;2023-02-11T10:40:16;27.40;;;12.00;;
70049;SDS011;57391;51.306;22.680;2023-02-11T10:42:57;26.80;;;12.10;;
70049;SDS011;57391;51.306;22.680;2023-02-11T10:45:54;27.30;;;13.20;;
70049;SDS011;57391;51.306;22.680;2023-02-11T10:48:51;28.50;;;12.30;;
70049;SDS011;57391;51.306;22.680;2023-02-11T10:56:50;29.30;;;13.20;;
70049;SDS011;57391;51.306;22.680;2023-02-11T10:59:29;24.10;;;11.70;;
70049;SDS011;57391;51.306;22.680;2023-02-11T11:02:02;30.00;;;12.50;;
70049;SDS011;57391;51.306;22.680;2023-02-11T11:04:36;25.60;;;11.50;;
70049;SDS011;57391;51.306;22.680;2023-02-11T11:09:56;27.90;;;11.50;;
70049;SDS011;57391;51.306;22.680;2023-02-11T11:12:55;30.60;;;13.30;;
70049;SDS011;57391;51.306;22.680;2023-02-11T11:15:28;30.10;;;13.20;;
70049;SDS011;57391;51.306;22.680;2023-02-11T11:18:11;27.00;;;12.30;;
70049;SDS011;57391;51.306;22.680;2023-02-11T11:21:02;27.10;;;12.60;;
70049;SDS011;57391;51.306;22.680;2023-02-11T11:23:36;26.20;;;11.70;;
70049;SDS011;57391;51.306;22.680;2023-02-11T11:26:11;26.80;;;13.90;;
70049;SDS011;57391;51.306;22.680;2023-02-11T11:29:06;30.20;;;12.80;;
70049;SDS011;57391;51.306;22.680;2023-02-11T11:31:45;30.40;;;13.00;;
70049;SDS011;57391;51.306;22.680;2023-02-11T11:34:40;31.30;;;13.30;;
70049;SDS011;57391;51.306;22.680;2023-02-11T11:37:33;30.30;;;12.20;;
70049;SDS011;57391;51.306;22.680;2023-02-11T11:42:42;27.70;;;12.20;;
70049;SDS011;57391;51.306;22.680;2023-02-11T11:47:50;26.40;;;12.60;;
70049;SDS011;57391;51.306;22.680;2023-02-11T11:50:26;28.50;;;13.30;;
70049;SDS011;57391;51.306;22.680;2023-02-11T11:54:01;30.80;;;14.60;;
70049;SDS011;57391;51.306;22.680;2023-02-11T11:58:53;29.00;;;14.20;;
70049;SDS011;57391;51.306;22.680;2023-02-11T12:05:05;27.20;;;13.20;;
70049;SDS011;57391;51.306;22.680;2023-02-11T12:07:47;30.00;;;13.10;;
70049;SDS011;57391;51.306;22.680;2023-02-11T12:10:31;27.40;;;12.30;;
70049;SDS011;57391;51.306;22.680;2023-02-11T12:25:50;27.90;;;12.90;;
70049;SDS011;57391;51.306;22.680;2023-02-11T12:40:03;32.10;;;14.40;;
70049;SDS011;57391;51.306;22.680;2023-02-11T12:43:24;28.90;;;14.70;;
70049;SDS011;57391;51.306;22.680;2023-02-11T12:46:18;30.00;;;13.80;;
70049;SDS011;57391;51.306;22.680;2023-02-11T12:49:49;27.80;;;13.20;;
70049;SDS011;57391;51.306;22.680;2023-02-11T12:53:11;27.30;;;12.60;;
70049;SDS011;57391;51.306;22.680;2023-02-11T12:55:46;31.20;;;15.30;;
70049;SDS011;57391;51.306;22.680;2023-02-11T12:58:22;34.40;;;14.40;;
70049;SDS011;57391;51.306;22.680;2023-02-11T13:00:57;30.30;;;14.80;;
70049;SDS011;57391;51.306;22.680;2023-02-11T13:03:42;34.70;;;14.80;;
70049;SDS011;57391;51.306;22.680;2023-02-11T13:06:28;29.60;;;14.60;;
70049;SDS011;57391;51.306;22.680;2023-02-11T13:09:06;35.40;;;16.70;;
70049;SDS011;57391;51.306;22.680;2023-02-11T13:11:45;27.70;;;13.20;;
70049;SDS011;57391;51.306;22.680;2023-02-11T13:14:24;30.70;;;15.10;;
70049;SDS011;57391;51.306;22.680;2023-02-11T13:17:03;35.30;;;17.00;;
70049;SDS011;57391;51.306;22.680;2023-02-11T13:19:51;31.60;;;13.40;;
70049;SDS011;57391;51.306;22.680;2023-02-11T13:22:27;27.10;;;13.20;;
70049;SDS011;57391;51.306;22.680;2023-02-11T13:25:20;27.20;;;13.20;;
70049;SDS011;57391;51.306;22.680;2023-02-11T13:28:16;29.00;;;14.80;;
70049;SDS011;57391;51.306;22.680;2023-02-11T13:30:56;27.10;;;12.50;;
70049;SDS011;57391;51.306;22.680;2023-02-11T13:33:34;28.70;;;14.20;;
70049;SDS011;57391;51.306;22.680;2023-02-11T13:38:32;30.90;;;14.00;;
70049;SDS011;57391;51.306;22.680;2023-02-11T13:43:33;30.40;;;13.30;;
70049;SDS011;57391;51.306;22.680;2023-02-11T13:46:07;29.10;;;13.60;;
70049;SDS011;57391;51.306;22.680;2023-02-11T13:48:48;31.20;;;14.30;;
70049;SDS011;57391;51.306;22.680;2023-02-11T13:51:36;26.00;;;12.00;;
70049;SDS011;57391;51.306;22.680;2023-02-11T13:54:07;30.40;;;14.70;;
70049;SDS011;57391;51.306;22.680;2023-02-11T13:56:44;27.90;;;13.40;;
70049;SDS011;57391;51.306;22.680;2023-02-11T14:05:19;29.40;;;13.70;;
70049;SDS011;57391;51.306;22.680;2023-02-11T14:08:21;30.90;;;13.70;;
70049;SDS011;57391;51.306;22.680;2023-02-11T14:24:59;24.60;;;11.70;;
70049;SDS011;57391;51.306;22.680;2023-02-11T14:27:32;31.40;;;15.60;;
70049;SDS011;57391;51.306;22.680;2023-02-11T14:30:44;32.90;;;16.60;;
70049;SDS011;57391;51.306;22.680;2023-02-11T14:37:12;31.60;;;14.70;;
70049;SDS011;57391;51.306;22.680;2023-02-11T14:42:45;29.80;;;13.00;;
70049;SDS011;57391;51.306;22.680;2023-02-11T14:45:22;23.00;;;11.20;;
70049;SDS011;57391;51.306;22.680;2023-02-11T14:48:06;21.50;;;10.70;;
70049;SDS011;57391;51.306;22.680;2023-02-11T14:50:58;25.50;;;12.00;;
70049;SDS011;57391;51.306;22.680;2023-02-11T14:53:35;25.60;;;12.50;;
70049;SDS011;57391;51.306;22.680;2023-02-11T14:56:17;23.50;;;11.20;;
70049;SDS011;57391;51.306;22.680;2023-02-11T14:58:51;26.10;;;11.70;;
70049;SDS011;57391;51.306;22.680;2023-02-11T15:04:02;19.00;;;10.10;;
70049;SDS011;57391;51.306;22.680;2023-02-11T15:06:37;23.30;;;11.60;;
70049;SDS011;57391;51.306;22.680;2023-02-11T15:11:47;23.20;;;12.10;;
70049;SDS011;57391;51.306;22.680;2023-02-11T15:14:28;25.00;;;11.90;;
70049;SDS011;57391;51.306;22.680;2023-02-11T15:17:02;25.50;;;12.00;;
70049;SDS011;57391;51.306;22.680;2023-02-11T15:19:35;24.60;;;12.30;;
70049;SDS011;57391;51.306;22.680;2023-02-11T15:22:14;20.70;;;9.90;;
70049;SDS011;57391;51.306;22.680;2023-02-11T15:24:44;24.70;;;11.60;;
70049;SDS011;57391;51.306;22.680;2023-02-11T15:27:39;24.50;;;12.10;;
70049;SDS011;57391;51.306;22.680;2023-02-11T15:30:29;24.10;;;11.70;;
70049;SDS011;57391;51.306;22.680;2023-02-11T15:33:01;24.20;;;11.10;;
70049;SDS011;57391;51.306;22.680;2023-02-11T15:35:34;23.10;;;11.00;;
70049;SDS011;57391;51.306;22.680;2023-02-11T15:38:06;21.90;;;10.20;;
70049;SDS011;57391;51.306;22.680;2023-02-11T15:40:35;23.00;;;10.70;;
70049;SDS011;57391;51.306;22.680;2023-02-11T15:43:08;20.70;;;10.00;;
70049;SDS011;57391;51.306;22.680;2023-02-11T15:48:37;22.90;;;10.90;;
70049;SDS011;57391;51.306;22.680;2023-02-11T15:51:18;22.10;;;10.20;;
70049;SDS011;57391;51.306;22.680;2023-02-11T15:53:51;23.40;;;11.80;;
70049;SDS011;57391;51.306;22.680;2023-02-11T15:59:15;19.00;;;9.20;;
70049;SDS011;57391;51.306;22.680;2023-02-11T16:01:46;20.70;;;10.70;;
70049;SDS011;57391;51.306;22.680;2023-02-11T16:04:17;23.40;;;11.20;;
70049;SDS011;57391;51.306;22.680;2023-02-11T16:06:47;25.50;;;11.50;;
70049;SDS011;57391;51.306;22.680;2023-02-11T16:19:33;22.10;;;10.90;;
70049;SDS011;57391;51.306;22.680;2023-02-11T16:22:14;25.00;;;11.20;;
70049;SDS011;57391;51.306;22.680;2023-02-11T16:24:47;24.10;;;11.40;;
70049;SDS011;57391;51.306;22.680;2023-02-11T16:27:20;24.40;;;11.70;;
70049;SDS011;57391;51.306;22.680;2023-02-11T16:29:57;24.10;;;12.20;;
70049;SDS011;57391;51.306;22.680;2023-02-11T16:32:27;25.40;;;11.70;;
70049;SDS011;57391;51.306;22.680;2023-02-11T16:34:57;23.90;;;11.30;;
70049;SDS011;57391;51.306;22.680;2023-02-11T16:37:26;24.60;;;11.20;;
70049;SDS011;57391;51.306;22.680;2023-02-11T16:39:55;23.20;;;10.70;;
70049;SDS011;57391;51.306;22.680;2023-02-11T16:42:23;20.70;;;10.40;;
70049;SDS011;57391;51.306;22.680;2023-02-11T16:44:50;20.40;;;10.70;;
70049;SDS011;57391;51.306;22.680;2023-02-11T16:47:26;20.90;;;11.00;;
70049;SDS011;57391;51.306;22.680;2023-02-11T16:49:57;23.80;;;11.10;;
70049;SDS011;57391;51.306;22.680;2023-02-11T16:52:26;22.80;;;10.90;;
70049;SDS011;57391;51.306;22.680;2023-02-11T16:55:01;18.60;;;10.50;;
70049;SDS011;57391;51.306;22.680;2023-02-11T16:57:32;19.10;;;10.20;;
70049;SDS011;57391;51.306;22.680;2023-02-11T17:00:03;19.00;;;10.30;;
70049;SDS011;57391;51.306;22.680;2023-02-11T17:02:33;23.30;;;10.60;;
70049;SDS011;57391;51.306;22.680;2023-02-11T17:05:06;23.50;;;11.60;;
70049;SDS011;57391;51.306;22.680;2023-02-11T17:07:37;23.80;;;10.80;;
70049;SDS011;57391;51.306;22.680;2023-02-11T17:10:16;21.90;;;11.60;;
70049;SDS011;57391;51.306;22.680;2023-02-11T17:12:50;20.60;;;10.40;;
70049;SDS011;57391;51.306;22.680;2023-02-11T17:15:19;21.40;;;10.50;;